CCA8419 ZYTL-ZBAA
Flight info
| Callsign | CCA8419 |
|---|---|
| Flight time | N/A |
| Altitude | 27600 |
| Route | ORA19D ORAVA W576 OVTUP W55 DUMAP DUMAP9Z |
| Aircraft | A321/M-SDE3FGHIRWY/LB1 |
Departure
| Time | 2026-05-07 13:15 |
|---|---|
| Airport | Dalian Zhoushuizi International Airport (ZYTL) |
Arrival
| Time | N/A |
|---|---|
| Airport | Beijing Capital International Airport (ZBAA) |
| Time | Latitude | Longitude | Altitude | Speed | Heading |
|---|---|---|---|---|---|
| 2026-05-07 12:57 | 38.96226 | 121.54235 | 116 ft | 0 kts | 182° |
| 2026-05-07 13:04 | 38.96240 | 121.54236 | 111 ft | 3 kts | 176° |
| 2026-05-07 13:05 | 38.96259 | 121.54231 | 111 ft | 3 kts | 159° |
| 2026-05-07 13:05 | 38.96276 | 121.54218 | 112 ft | 3 kts | 128° |
| 2026-05-07 13:05 | 38.96285 | 121.54196 | 112 ft | 3 kts | 98° |
| 2026-05-07 13:05 | 38.96286 | 121.54192 | 113 ft | 0 kts | 98° |
| 2026-05-07 13:07 | 38.96285 | 121.54195 | 116 ft | 2 kts | 98° |
| 2026-05-07 13:07 | 38.96306 | 121.54233 | 114 ft | 9 kts | 26° |
| 2026-05-07 13:08 | 38.96347 | 121.54290 | 115 ft | 9 kts | 87° |
| 2026-05-07 13:08 | 38.96342 | 121.54390 | 116 ft | 13 kts | 95° |
| 2026-05-07 13:08 | 38.96330 | 121.54530 | 116 ft | 18 kts | 96° |
| 2026-05-07 13:08 | 38.96317 | 121.54712 | 116 ft | 23 kts | 95° |
| 2026-05-07 13:09 | 38.96294 | 121.54931 | 116 ft | 25 kts | 109° |
| 2026-05-07 13:09 | 38.96260 | 121.55147 | 115 ft | 24 kts | 96° |
| 2026-05-07 13:09 | 38.96244 | 121.55355 | 115 ft | 23 kts | 95° |
| 2026-05-07 13:09 | 38.96230 | 121.55548 | 115 ft | 16 kts | 96° |
| 2026-05-07 13:10 | 38.96225 | 121.55611 | 115 ft | 6 kts | 96° |
| 2026-05-07 13:10 | 38.96222 | 121.55659 | 115 ft | 4 kts | 87° |
| 2026-05-07 13:10 | 38.96238 | 121.55688 | 114 ft | 4 kts | 38° |
| 2026-05-07 13:10 | 38.96271 | 121.55702 | 114 ft | 6 kts | 8° |
| 2026-05-07 13:11 | 38.96307 | 121.55707 | 115 ft | 2 kts | 6° |
| 2026-05-07 13:11 | 38.96308 | 121.55707 | 115 ft | 0 kts | 6° |
| 2026-05-07 13:12 | 38.96335 | 121.55711 | 114 ft | 8 kts | 6° |
| 2026-05-07 13:12 | 38.96400 | 121.55710 | 115 ft | 9 kts | 336° |
| 2026-05-07 13:12 | 38.96419 | 121.55652 | 115 ft | 7 kts | 279° |
| 2026-05-07 13:12 | 38.96422 | 121.55617 | 115 ft | 0 kts | 276° |
| 2026-05-07 13:14 | 38.96422 | 121.55612 | 115 ft | 4 kts | 276° |
| 2026-05-07 13:14 | 38.96446 | 121.55316 | 116 ft | 69 kts | 276° |
| 2026-05-07 13:14 | 38.96514 | 121.54428 | 113 ft | 128 kts | 276° |
| 2026-05-07 13:14 | 38.96618 | 121.53086 | 140 ft | 170 kts | 276° |
| 2026-05-07 13:15 | 38.96740 | 121.51574 | 756 ft | 168 kts | 276° |
| 2026-05-07 13:15 | 38.96861 | 121.50080 | 1470 ft | 168 kts | 279° |
| 2026-05-07 13:15 | 38.96982 | 121.48583 | 2101 ft | 169 kts | 281° |
| 2026-05-07 13:15 | 38.97099 | 121.47063 | 2689 ft | 173 kts | 282° |
| 2026-05-07 13:16 | 38.97211 | 121.45532 | 3256 ft | 173 kts | 282° |
| 2026-05-07 13:16 | 38.97330 | 121.43939 | 3562 ft | 188 kts | 282° |
| 2026-05-07 13:16 | 38.97214 | 121.42146 | 3716 ft | 222 kts | 255° |
| 2026-05-07 13:16 | 38.96374 | 121.40315 | 3873 ft | 251 kts | 245° |
| 2026-05-07 13:17 | 38.95526 | 121.38261 | 4321 ft | 266 kts | 249° |
| 2026-05-07 13:17 | 38.94732 | 121.36098 | 5105 ft | 269 kts | 251° |
| 2026-05-07 13:17 | 38.93958 | 121.33942 | 5914 ft | 271 kts | 251° |
| 2026-05-07 13:17 | 38.93148 | 121.31710 | 6704 ft | 273 kts | 251° |
| 2026-05-07 13:18 | 38.92342 | 121.29529 | 7437 ft | 275 kts | 251° |
| 2026-05-07 13:18 | 38.91505 | 121.27305 | 8176 ft | 278 kts | 252° |
| 2026-05-07 13:18 | 38.90651 | 121.25064 | 8921 ft | 280 kts | 252° |
| 2026-05-07 13:18 | 38.89788 | 121.22810 | 9670 ft | 282 kts | 252° |
| 2026-05-07 13:19 | 38.88913 | 121.20540 | 10343 ft | 287 kts | 252° |
| 2026-05-07 13:19 | 38.87997 | 121.18156 | 10502 ft | 308 kts | 251° |
| 2026-05-07 13:19 | 38.87018 | 121.15600 | 10649 ft | 329 kts | 251° |
| 2026-05-07 13:19 | 38.85975 | 121.12892 | 10865 ft | 345 kts | 250° |
| 2026-05-07 13:20 | 38.84896 | 121.10108 | 11396 ft | 351 kts | 250° |
| 2026-05-07 13:20 | 38.83798 | 121.07295 | 11998 ft | 354 kts | 249° |
| 2026-05-07 13:20 | 38.82690 | 121.04463 | 12619 ft | 356 kts | 249° |
| 2026-05-07 13:20 | 38.81574 | 121.01609 | 13247 ft | 359 kts | 249° |
| 2026-05-07 13:21 | 38.80454 | 120.98735 | 13838 ft | 362 kts | 249° |
| 2026-05-07 13:21 | 38.79330 | 120.95842 | 14369 ft | 364 kts | 249° |
| 2026-05-07 13:21 | 38.78196 | 120.92920 | 14890 ft | 367 kts | 249° |
| 2026-05-07 13:21 | 38.77070 | 120.90022 | 15392 ft | 369 kts | 249° |
| 2026-05-07 13:22 | 38.75917 | 120.87067 | 15892 ft | 372 kts | 249° |
| 2026-05-07 13:22 | 38.74755 | 120.84099 | 16394 ft | 374 kts | 249° |
| 2026-05-07 13:22 | 38.73584 | 120.81113 | 16875 ft | 377 kts | 249° |
| 2026-05-07 13:22 | 38.72403 | 120.78103 | 17335 ft | 379 kts | 249° |
| 2026-05-07 13:23 | 38.71216 | 120.75075 | 17814 ft | 382 kts | 249° |
| 2026-05-07 13:23 | 38.70022 | 120.72028 | 18237 ft | 384 kts | 249° |
| 2026-05-07 13:23 | 38.68819 | 120.68964 | 18631 ft | 386 kts | 249° |
| 2026-05-07 13:23 | 38.67610 | 120.65886 | 19014 ft | 388 kts | 249° |
| 2026-05-07 13:24 | 38.66467 | 120.62773 | 19405 ft | 385 kts | 255° |
| 2026-05-07 13:24 | 38.65741 | 120.59507 | 19795 ft | 379 kts | 265° |
| 2026-05-07 13:24 | 38.65523 | 120.57306 | 20048 ft | 376 kts | 271° |
| 2026-05-07 13:24 | 38.65581 | 120.53985 | 20443 ft | 372 kts | 281° |
| 2026-05-07 13:25 | 38.66237 | 120.49656 | 20982 ft | 371 kts | 285° |
| 2026-05-07 13:25 | 38.66596 | 120.47518 | 21239 ft | 372 kts | 285° |
| 2026-05-07 13:25 | 38.67133 | 120.44277 | 21645 ft | 374 kts | 285° |
| 2026-05-07 13:25 | 38.67670 | 120.41011 | 22054 ft | 375 kts | 285° |